createdAt,value
2023-03-06T00:02:53.317Z,30.38
2023-03-06T00:07:56.366Z,34.42
2023-03-06T00:13:03.589Z,31.75
2023-03-06T00:18:07.742Z,30.35
2023-03-06T00:23:11.575Z,28.90
2023-03-06T00:28:16.063Z,27.60
2023-03-06T00:33:19.183Z,32.20
2023-03-06T00:38:22.199Z,28.70
2023-03-06T00:43:25.641Z,30.83
2023-03-06T00:48:28.844Z,33.58
2023-03-06T00:53:31.928Z,33.35
2023-03-06T00:58:35.372Z,33.60
2023-03-06T01:03:38.481Z,37.58
2023-03-06T01:08:41.234Z,34.03
2023-03-06T01:13:44.899Z,36.15
2023-03-06T01:18:49.835Z,31.02
2023-03-06T01:23:52.795Z,35.70
2023-03-06T01:28:57.799Z,33.38
2023-03-06T01:34:00.840Z,32.92
2023-03-06T01:39:04.404Z,31.90
2023-03-06T01:44:07.383Z,34.70
2023-03-06T01:49:24.103Z,36.05
2023-03-06T01:54:50.984Z,30.52
2023-03-06T02:00:03.113Z,32.47
2023-03-06T02:05:16.081Z,34.17
2023-03-06T02:10:21.676Z,37.00
2023-03-06T02:15:27.773Z,34.53
2023-03-06T02:20:51.477Z,33.42
2023-03-06T02:25:54.948Z,34.25
2023-03-06T02:30:58.238Z,33.13
2023-03-06T02:36:15.446Z,31.48
2023-03-06T02:41:18.986Z,36.95
2023-03-06T02:46:23.519Z,36.10
2023-03-06T02:51:26.922Z,40.40
2023-03-06T02:56:29.880Z,34.55
2023-03-06T03:01:33.738Z,40.28
2023-03-06T03:06:36.817Z,35.90
2023-03-06T03:11:40.754Z,38.35
2023-03-06T03:16:45.624Z,38.13
2023-03-06T03:21:48.866Z,38.22
2023-03-06T03:26:52.304Z,35.08
2023-03-06T03:31:57.573Z,35.53
2023-03-06T03:42:05.947Z,28.95
2023-03-06T03:47:09.224Z,30.20
2023-03-06T03:52:12.643Z,36.00
2023-03-06T03:57:17.052Z,37.03
2023-03-06T04:02:25.777Z,34.58
2023-03-06T04:07:38.397Z,34.78
2023-03-06T04:12:41.599Z,36.63
2023-03-06T04:17:46.921Z,45.50
2023-03-06T04:22:54.035Z,49.22
2023-03-06T04:27:57.990Z,34.13
2023-03-06T04:33:01.442Z,35.50
2023-03-06T04:38:05.565Z,32.40
2023-03-06T04:43:13.811Z,33.13
2023-03-06T04:48:18.886Z,45.45
2023-03-06T04:53:27.293Z,49.13
2023-03-06T04:58:30.194Z,53.53
2023-03-06T05:03:33.255Z,57.20
2023-03-06T05:08:36.167Z,54.60
2023-03-06T05:13:39.176Z,48.50
2023-03-06T05:18:42.093Z,45.95
2023-03-06T05:23:44.939Z,44.47
2023-03-06T05:28:50.221Z,38.35
2023-03-06T05:33:55.107Z,39.45
2023-03-06T05:38:58.360Z,37.75
2023-03-06T05:44:01.036Z,35.88
2023-03-06T05:49:04.947Z,40.50
2023-03-06T05:54:11.814Z,43.97
2023-03-06T05:59:16.529Z,53.03
2023-03-06T06:05:57.754Z,60.60
2023-03-06T06:11:00.580Z,74.55
2023-03-06T06:23:37.712Z,60.42
2023-03-06T06:28:40.628Z,51.28
2023-03-06T06:33:43.636Z,40.58
2023-03-06T06:38:47.399Z,38.03
2023-03-06T06:43:50.123Z,39.28
2023-03-06T06:48:56.808Z,31.55
2023-03-06T07:02:13.665Z,36.38
2023-03-06T07:07:17.427Z,41.03
2023-03-06T07:12:39.487Z,36.47
2023-03-06T07:18:01.906Z,34.72
2023-03-06T07:23:43.770Z,42.10
2023-03-06T07:28:55.210Z,46.00
2023-03-06T07:33:59.467Z,39.50
2023-03-06T07:39:03.943Z,44.22
2023-03-06T07:44:07.222Z,47.80
2023-03-06T07:49:16.567Z,55.28
2023-03-06T07:54:21.224Z,56.78
2023-03-06T07:59:24.236Z,58.58
2023-03-06T08:04:29.018Z,51.90
2023-03-06T08:09:35.370Z,55.47
2023-03-06T08:14:38.365Z,31.40
2023-03-06T08:19:41.275Z,33.17
2023-03-06T08:24:44.182Z,25.20
2023-03-06T08:29:47.415Z,22.20
2023-03-06T08:34:50.612Z,26.80
2023-03-06T08:39:53.530Z,34.00
2023-03-06T08:44:56.419Z,26.55
2023-03-06T08:50:00.680Z,24.50
2023-03-06T08:55:06.576Z,29.50
2023-03-06T09:00:11.381Z,28.60
2023-03-06T09:05:14.702Z,34.00
2023-03-06T09:10:20.553Z,30.60
2023-03-06T09:15:29.817Z,33.25
2023-03-06T09:27:28.926Z,28.73
2023-03-06T09:32:32.422Z,26.23
2023-03-06T09:37:36.105Z,24.55
2023-03-06T09:42:39.419Z,31.60
2023-03-06T09:48:01.946Z,28.45
2023-03-06T09:53:42.110Z,31.60
2023-03-06T09:59:15.464Z,26.17
2023-03-06T10:04:41.610Z,25.88
2023-03-06T10:09:56.548Z,25.38
2023-03-06T10:15:07.733Z,25.23
2023-03-06T10:20:22.038Z,24.70
2023-03-06T10:25:35.899Z,24.40
2023-03-06T10:30:57.399Z,24.95
2023-03-06T10:36:00.559Z,25.33
2023-03-06T10:41:12.722Z,24.58
2023-03-06T10:46:32.054Z,20.40
2023-03-06T10:51:35.959Z,21.67
2023-03-06T10:56:43.475Z,24.98
2023-03-06T11:01:50.875Z,21.02
2023-03-06T11:07:07.743Z,18.17
2023-03-06T11:12:37.649Z,23.73
2023-03-06T11:17:58.074Z,23.50
2023-03-06T11:23:03.373Z,19.00
2023-03-06T11:28:24.497Z,19.67
2023-03-06T11:33:37.014Z,17.58
2023-03-06T11:38:48.422Z,16.80
2023-03-06T11:44:23.661Z,16.80
2023-03-06T11:49:35.313Z,19.35
2023-03-06T11:54:38.850Z,19.95
2023-03-06T12:00:29.934Z,15.63
2023-03-06T12:06:11.248Z,10.85
2023-03-06T12:11:23.398Z,13.73
2023-03-06T12:16:40.450Z,12.82
2023-03-06T12:22:09.504Z,17.73
2023-03-06T12:27:18.437Z,12.50
2023-03-06T12:32:59.546Z,11.65
2023-03-06T12:38:35.657Z,11.02
2023-03-06T12:43:53.915Z,16.40
2023-03-06T12:49:05.750Z,11.68
2023-03-06T12:54:13.370Z,10.00
2023-03-06T12:59:48.268Z,6.40
2023-03-06T13:05:00.595Z,14.63
2023-03-06T13:10:30.729Z,9.07
2023-03-06T13:15:39.008Z,8.98
2023-03-06T13:20:45.994Z,8.20
2023-03-06T13:25:50.776Z,7.07
2023-03-06T13:30:53.876Z,9.05
2023-03-06T13:36:19.747Z,8.65
2023-03-06T13:41:23.491Z,5.65
2023-03-06T13:46:31.324Z,9.30
2023-03-06T13:51:40.753Z,6.63
2023-03-06T13:56:52.599Z,10.45
2023-03-06T14:02:14.211Z,7.53
2023-03-06T14:07:23.614Z,11.25
2023-03-06T14:12:34.270Z,6.82
2023-03-06T14:17:39.445Z,4.82
2023-03-06T14:22:42.524Z,9.32
2023-03-06T14:27:50.365Z,5.18
2023-03-06T14:32:55.640Z,4.50
2023-03-06T14:38:03.551Z,8.23
2023-03-06T14:43:22.544Z,5.43
2023-03-06T14:48:38.871Z,6.38
2023-03-06T14:53:42.384Z,10.07
2023-03-06T14:59:03.421Z,9.25
2023-03-06T15:04:36.986Z,11.70
2023-03-06T15:09:43.696Z,11.35
2023-03-06T15:15:10.613Z,4.63
2023-03-06T15:20:38.235Z,4.07
2023-03-06T15:25:41.107Z,10.75
2023-03-06T15:30:44.183Z,6.03
2023-03-06T15:36:02.238Z,4.93
2023-03-06T15:41:07.395Z,4.72
2023-03-06T15:46:11.936Z,4.28
2023-03-06T15:51:14.951Z,5.05
2023-03-06T15:56:22.126Z,6.18
2023-03-06T16:01:25.024Z,4.32
2023-03-06T16:06:28.345Z,3.40
2023-03-06T16:11:43.302Z,3.70
2023-03-06T16:16:46.843Z,5.00
2023-03-06T16:21:50.035Z,4.20
2023-03-06T16:26:56.024Z,3.75
2023-03-06T16:32:02.143Z,3.95
2023-03-06T16:37:06.541Z,4.50
2023-03-06T16:42:09.462Z,6.50
2023-03-06T16:47:12.742Z,7.85
2023-03-06T16:52:16.593Z,6.70
2023-03-06T16:57:19.480Z,2.90
2023-03-06T17:02:22.425Z,3.40
2023-03-06T17:07:25.492Z,2.85
2023-03-06T17:12:28.586Z,8.35
2023-03-06T17:17:31.689Z,3.60
2023-03-06T17:22:36.106Z,3.38
2023-03-06T17:27:39.196Z,3.30
2023-03-06T17:32:42.227Z,4.70
2023-03-06T17:37:45.329Z,4.47
2023-03-06T17:42:48.204Z,3.50
2023-03-06T17:47:55.209Z,6.15
2023-03-06T17:52:58.182Z,4.68
2023-03-06T17:58:04.767Z,3.38
2023-03-06T18:03:14.586Z,4.43
2023-03-06T18:08:17.778Z,3.35
2023-03-06T18:13:20.877Z,4.70
2023-03-06T18:18:24.485Z,4.80
2023-03-06T18:23:27.559Z,4.57
2023-03-06T18:28:31.076Z,7.68
2023-03-06T18:33:34.021Z,6.85
2023-03-06T18:38:38.236Z,4.78
2023-03-06T18:43:41.920Z,6.50
2023-03-06T18:48:45.003Z,4.53
2023-03-06T18:53:48.332Z,6.45
2023-03-06T18:58:51.778Z,4.38
2023-03-06T19:03:54.693Z,3.30
2023-03-06T19:08:59.119Z,4.80
2023-03-06T19:14:02.190Z,4.53
2023-03-06T19:19:06.478Z,3.85
2023-03-06T19:24:14.225Z,5.60
2023-03-06T19:29:17.070Z,4.25
2023-03-06T19:34:20.294Z,3.25
2023-03-06T19:39:24.640Z,3.13
2023-03-06T19:44:27.921Z,2.97
2023-03-06T19:49:30.923Z,6.32
2023-03-06T19:54:33.668Z,3.15
2023-03-06T19:59:36.920Z,4.05
2023-03-06T20:04:39.958Z,4.68
2023-03-06T20:09:43.070Z,7.88
2023-03-06T20:14:46.597Z,9.25
2023-03-06T20:19:49.649Z,8.43
2023-03-06T20:24:53.005Z,6.97
2023-03-06T20:29:56.095Z,7.53
2023-03-06T20:34:59.107Z,4.63
2023-03-06T20:40:02.318Z,6.22
2023-03-06T20:45:06.685Z,6.03
2023-03-06T20:50:09.743Z,4.60
2023-03-06T20:55:12.833Z,4.45
2023-03-06T21:00:16.355Z,3.92
2023-03-06T21:05:19.267Z,4.35
2023-03-06T21:10:22.123Z,4.35
2023-03-06T21:15:30.156Z,6.40
2023-03-06T21:20:34.062Z,5.60
2023-03-06T21:25:37.010Z,4.45
2023-03-06T21:30:40.060Z,5.13
2023-03-06T21:35:44.853Z,4.60
2023-03-06T21:40:48.213Z,6.18
2023-03-06T21:45:53.026Z,4.90
2023-03-06T21:51:13.801Z,6.00
2023-03-06T21:56:19.444Z,5.03
2023-03-06T22:01:25.799Z,9.68
2023-03-06T22:06:31.719Z,4.57
2023-03-06T22:11:37.528Z,4.88
2023-03-06T22:16:40.390Z,4.32
2023-03-06T22:21:43.285Z,5.13
2023-03-06T22:26:46.354Z,4.18
2023-03-06T22:31:49.556Z,6.00
2023-03-06T22:36:53.199Z,5.15
2023-03-06T22:41:56.427Z,5.03
2023-03-06T22:46:59.721Z,5.90
2023-03-06T22:52:02.796Z,7.28
2023-03-06T22:57:06.301Z,6.57
2023-03-06T23:02:09.190Z,6.10
2023-03-06T23:07:12.200Z,7.50
2023-03-06T23:12:15.058Z,5.05
2023-03-06T23:17:37.177Z,8.82
2023-03-06T23:22:59.219Z,4.32
2023-03-06T23:28:17.868Z,3.97
2023-03-06T23:33:20.848Z,4.18
2023-03-06T23:38:23.977Z,6.00
2023-03-06T23:43:26.955Z,5.82
2023-03-06T23:48:30.391Z,4.65
2023-03-06T23:53:32.986Z,5.45
2023-03-06T23:58:36.368Z,5.95
